createdAt,value
2022-09-28T00:01:23.993Z,97462.61
2022-09-28T00:03:54.619Z,97459.29
2022-09-28T00:06:26.815Z,97451.14
2022-09-28T00:08:55.146Z,97449.67
2022-09-28T00:11:25.497Z,97448.27
2022-09-28T00:13:56.662Z,97445.81
2022-09-28T00:16:27.965Z,97442.86
2022-09-28T00:18:57.586Z,97442.38
2022-09-28T00:21:28.221Z,97441.17
2022-09-28T00:24:13.440Z,97437.17
2022-09-28T00:26:44.903Z,97431.05
2022-09-28T00:29:27.770Z,97432.66
2022-09-28T00:32:00.280Z,97436.77
2022-09-28T00:34:38.623Z,97434.04
2022-09-28T00:37:09.272Z,97433.48
2022-09-28T00:39:38.492Z,97431.15
2022-09-28T00:42:19.475Z,97426.02
2022-09-28T00:44:49.252Z,97427.12
2022-09-28T00:47:25.982Z,97425.98
2022-09-28T00:50:09.299Z,97426.79
2022-09-28T00:53:11.803Z,97426.03
2022-09-28T00:55:54.842Z,97423.66
2022-09-28T00:58:32.173Z,97421.88
2022-09-28T01:01:00.529Z,97425.12
2022-09-28T01:03:29.663Z,97421.75
2022-09-28T01:06:01.871Z,97420.33
2022-09-28T01:08:32.745Z,97421.05
2022-09-28T01:11:01.532Z,97421.27
2022-09-28T01:13:33.077Z,97424.36
2022-09-28T01:16:19.698Z,97427.90
2022-09-28T01:18:59.377Z,97425.30
2022-09-28T01:21:54.676Z,97420.29
2022-09-28T01:24:48.185Z,97421.69
2022-09-28T01:27:42.044Z,97420.14
2022-09-28T01:30:17.231Z,97417.89
2022-09-28T01:32:58.691Z,97416.88
2022-09-28T01:35:35.528Z,97418.29
2022-09-28T01:38:09.480Z,97416.27
2022-09-28T01:40:38.211Z,97415.25
2022-09-28T01:43:10.437Z,97409.64
2022-09-28T01:45:49.120Z,97408.10
2022-09-28T01:48:36.058Z,97405.27
2022-09-28T01:51:10.583Z,97400.04
2022-09-28T01:53:53.390Z,97399.56
2022-09-28T01:56:31.886Z,97398.40
2022-09-28T01:59:08.429Z,97396.65
2022-09-28T02:01:46.222Z,97397.86
2022-09-28T02:04:21.151Z,97392.98
2022-09-28T02:06:57.095Z,97394.52
2022-09-28T02:09:33.894Z,97396.71
2022-09-28T02:12:19.721Z,97393.44
2022-09-28T02:14:52.886Z,97390.85
2022-09-28T02:17:21.714Z,97390.77
2022-09-28T02:19:49.979Z,97392.55
2022-09-28T02:22:28.795Z,97391.15
2022-09-28T02:25:04.256Z,97388.95
2022-09-28T02:27:36.530Z,97391.24
2022-09-28T02:30:05.921Z,97389.51
2022-09-28T02:32:40.526Z,97387.25
2022-09-28T02:35:12.828Z,97387.51
2022-09-28T02:37:40.879Z,97386.88
2022-09-28T02:40:20.507Z,97383.13
2022-09-28T02:42:57.408Z,97385.02
2022-09-28T02:45:48.958Z,97387.83
2022-09-28T02:48:55.753Z,97386.38
2022-09-28T02:51:52.157Z,97381.39
2022-09-28T02:54:30.083Z,97381.13
2022-09-28T02:57:13.474Z,97380.22
2022-09-28T02:59:54.190Z,97378.39
2022-09-28T03:02:31.265Z,97378.63
2022-09-28T03:05:21.653Z,97379.60
2022-09-28T03:07:59.833Z,97378.82
2022-09-28T03:10:47.708Z,97381.20
2022-09-28T03:13:18.835Z,97381.11
2022-09-28T03:15:49.024Z,97379.83
2022-09-28T03:18:18.775Z,97380.98
2022-09-28T03:20:49.588Z,97379.29
2022-09-28T03:23:24.711Z,97374.92
2022-09-28T03:25:56.220Z,97375.48
2022-09-28T03:28:26.060Z,97375.61
2022-09-28T03:30:54.400Z,97373.52
2022-09-28T03:33:23.078Z,97373.48
2022-09-28T03:35:54.729Z,97371.70
2022-09-28T03:38:22.900Z,97372.21
2022-09-28T03:40:59.676Z,97369.84
2022-09-28T03:43:30.466Z,97368.13
2022-09-28T03:46:01.912Z,97368.13
2022-09-28T03:48:33.473Z,97368.48
2022-09-28T03:51:04.520Z,97371.60
2022-09-28T03:53:35.560Z,97368.22
2022-09-28T03:56:12.783Z,97369.41
2022-09-28T03:58:42.492Z,97369.42
2022-09-28T04:01:17.632Z,97366.86
2022-09-28T04:04:01.197Z,97368.54
2022-09-28T04:06:40.444Z,97367.69
2022-09-28T04:09:08.667Z,97361.59
2022-09-28T04:11:53.190Z,97359.03
2022-09-28T04:14:24.869Z,97360.95
2022-09-28T04:16:55.351Z,97361.68
2022-09-28T04:19:27.668Z,97360.57
2022-09-28T04:22:14.470Z,97362.53
2022-09-28T04:24:43.951Z,97363.39
2022-09-28T04:27:30.431Z,97363.95
2022-09-28T04:29:58.254Z,97358.70
2022-09-28T04:32:26.048Z,97363.42
2022-09-28T04:34:57.163Z,97366.55
2022-09-28T04:37:25.568Z,97371.96
2022-09-28T04:39:53.355Z,97370.05
2022-09-28T04:42:22.499Z,97371.16
2022-09-28T04:44:51.043Z,97370.15
2022-09-28T04:47:18.824Z,97367.70
2022-09-28T04:50:09.825Z,97369.39
2022-09-28T04:52:57.812Z,97367.36
2022-09-28T04:55:25.721Z,97365.84
2022-09-28T04:57:54.910Z,97361.97
2022-09-28T05:00:22.738Z,97358.50
2022-09-28T05:03:06.053Z,97358.48
2022-09-28T05:05:58.010Z,97356.34
2022-09-28T05:08:38.065Z,97357.34
2022-09-28T05:11:10.756Z,97358.27
2022-09-28T05:13:48.988Z,97357.89
2022-09-28T05:16:18.467Z,97355.22
2022-09-28T05:19:07.229Z,97351.54
2022-09-28T05:21:39.232Z,97351.04
2022-09-28T05:24:08.319Z,97350.36
2022-09-28T05:26:38.791Z,97344.25
2022-09-28T05:29:08.919Z,97344.12
2022-09-28T05:31:48.669Z,97344.41
2022-09-28T05:34:35.407Z,97348.55
2022-09-28T05:37:03.351Z,97346.16
2022-09-28T05:39:31.695Z,97348.71
2022-09-28T05:41:59.575Z,97348.72
2022-09-28T05:44:27.667Z,97348.13
2022-09-28T05:46:55.874Z,97347.06
2022-09-28T05:49:24.014Z,97350.55
2022-09-28T05:51:52.172Z,97353.41
2022-09-28T05:54:20.400Z,97353.68
2022-09-28T05:56:48.508Z,97355.27
2022-09-28T05:59:17.353Z,97349.61
2022-09-28T06:01:46.507Z,97341.13
2022-09-28T06:04:16.291Z,97340.08
2022-09-28T06:06:45.146Z,97342.56
2022-09-28T06:09:13.199Z,97337.48
2022-09-28T06:12:13.147Z,97330.48
2022-09-28T06:14:47.824Z,97324.48
2022-09-28T06:17:16.348Z,97326.72
2022-09-28T06:19:49.202Z,97323.91
2022-09-28T06:22:28.700Z,97318.45
2022-09-28T06:25:07.498Z,97315.61
2022-09-28T06:27:36.157Z,97314.90
2022-09-28T06:30:04.260Z,97310.25
2022-09-28T06:32:32.519Z,97310.84
2022-09-28T06:35:00.813Z,97306.91
2022-09-28T06:37:30.439Z,97300.77
2022-09-28T06:39:59.191Z,97298.13
2022-09-28T06:42:27.665Z,97294.20
2022-09-28T06:45:20.272Z,97293.64
2022-09-28T06:48:17.772Z,97295.84
2022-09-28T06:50:47.658Z,97299.09
2022-09-28T06:53:38.307Z,97302.42
2022-09-28T06:56:12.444Z,97301.77
2022-09-28T06:58:43.378Z,97294.06
2022-09-28T07:01:12.154Z,97292.40
2022-09-28T07:03:55.426Z,97293.85
2022-09-28T07:06:48.173Z,97298.63
2022-09-28T07:09:40.307Z,97299.48
2022-09-28T07:12:16.540Z,97298.97
2022-09-28T07:15:04.037Z,97295.95
2022-09-28T07:17:43.435Z,97294.17
2022-09-28T07:20:26.526Z,97288.70
2022-09-28T07:23:17.439Z,97291.30
2022-09-28T07:26:09.151Z,97291.70
2022-09-28T07:29:02.415Z,97290.14
2022-09-28T07:31:45.486Z,97284.92
2022-09-28T07:34:23.667Z,97283.27
2022-09-28T07:37:16.022Z,97279.90
2022-09-28T07:40:05.277Z,97279.40
2022-09-28T07:42:37.723Z,97280.19
2022-09-28T07:45:07.943Z,97283.28
2022-09-28T07:47:35.756Z,97284.68
2022-09-28T07:50:33.154Z,97285.64
2022-09-28T07:53:15.505Z,97287.06
2022-09-28T07:56:09.864Z,97287.88
2022-09-28T07:58:52.159Z,97282.69
2022-09-28T08:01:52.208Z,97281.21
2022-09-28T08:04:20.752Z,97280.98
2022-09-28T08:06:49.405Z,97277.25
2022-09-28T08:09:17.786Z,97273.14
2022-09-28T08:12:20.497Z,97270.04
2022-09-28T08:15:00.683Z,97269.72
2022-09-28T08:17:50.488Z,97269.91
2022-09-28T08:20:40.681Z,97268.90
2022-09-28T08:23:10.397Z,97269.77
2022-09-28T08:25:39.323Z,97270.28
2022-09-28T08:28:09.261Z,97269.27
2022-09-28T08:30:48.249Z,97268.36
2022-09-28T08:33:35.626Z,97267.52
2022-09-28T08:36:32.454Z,97258.72
2022-09-28T08:39:05.313Z,97251.20
2022-09-28T08:41:55.106Z,97255.09
2022-09-28T08:44:52.123Z,97256.55
2022-09-28T08:48:34.179Z,97258.66
2022-09-28T08:51:33.831Z,97255.42
2022-09-28T08:54:34.989Z,97255.89
2022-09-28T08:57:21.477Z,97257.36
2022-09-28T08:59:53.766Z,97251.40
2022-09-28T09:02:33.931Z,97250.12
2022-09-28T09:05:20.120Z,97255.29
2022-09-28T09:08:15.799Z,97257.60
2022-09-28T09:11:13.464Z,97253.26
2022-09-28T09:14:36.631Z,97252.95
2022-09-28T09:17:25.765Z,97250.73
2022-09-28T09:20:35.467Z,97249.91
2022-09-28T09:23:35.718Z,97250.96
2022-09-28T09:26:24.932Z,97246.71
2022-09-28T09:29:11.819Z,97249.48
2022-09-28T09:31:49.948Z,97251.09
2022-09-28T09:34:33.416Z,97252.89
2022-09-28T09:37:53.162Z,97259.54
2022-09-28T09:41:02.270Z,97255.83
2022-09-28T09:43:58.957Z,97252.35
2022-09-28T09:47:08.187Z,97251.69
2022-09-28T09:49:49.552Z,97253.45
2022-09-28T09:55:10.633Z,97252.09
2022-09-28T09:57:51.547Z,97256.26
2022-09-28T10:00:50.317Z,97259.77
2022-09-28T10:03:30.953Z,97266.29
2022-09-28T10:06:22.895Z,97268.50
2022-09-28T10:09:10.366Z,97268.72
2022-09-28T10:11:44.683Z,97271.75
2022-09-28T10:14:21.554Z,97278.76
2022-09-28T10:17:02.588Z,97279.37
2022-09-28T10:19:50.563Z,97275.27
2022-09-28T10:22:44.024Z,97280.16
2022-09-28T10:25:15.915Z,97279.08
2022-09-28T10:27:47.640Z,97277.64
2022-09-28T10:30:23.423Z,97282.26
2022-09-28T10:32:55.212Z,97283.92
2022-09-28T10:35:40.645Z,97284.25
2022-09-28T10:38:21.220Z,97283.30
2022-09-28T10:41:10.052Z,97282.69
2022-09-28T10:44:08.880Z,97276.67
2022-09-28T10:46:59.766Z,97274.73
2022-09-28T10:49:37.165Z,97270.45
2022-09-28T10:52:29.986Z,97270.63
2022-09-28T10:55:01.482Z,97265.95
2022-09-28T10:57:40.952Z,97263.84
2022-09-28T11:00:47.042Z,97264.55
2022-09-28T11:03:24.595Z,97264.80
2022-09-28T11:05:55.382Z,97261.66
2022-09-28T11:08:28.889Z,97258.16
2022-09-28T11:11:02.986Z,97253.52
2022-09-28T11:13:31.837Z,97254.08
2022-09-28T11:16:04.682Z,97250.44
2022-09-28T11:18:35.042Z,97251.44
2022-09-28T11:21:16.802Z,97259.61
2022-09-28T11:24:01.550Z,97262.51
2022-09-28T11:26:40.980Z,97263.04
2022-09-28T11:29:23.781Z,97264.73
2022-09-28T11:32:06.978Z,97262.96
2022-09-28T11:35:02.162Z,97263.02
2022-09-28T11:37:51.969Z,97265.15
2022-09-28T11:41:08.400Z,97264.55
2022-09-28T11:43:42.587Z,97258.67
2022-09-28T11:46:26.147Z,97250.37
2022-09-28T11:48:59.850Z,97244.46
2022-09-28T11:51:32.608Z,97239.79
2022-09-28T11:54:34.680Z,97237.13
2022-09-28T11:57:05.295Z,97234.45
2022-09-28T11:59:56.731Z,97232.31
2022-09-28T12:02:37.561Z,97224.80
2022-09-28T12:05:21.374Z,97220.10
2022-09-28T12:07:59.838Z,97215.56
2022-09-28T12:11:00.450Z,97205.98
2022-09-28T12:13:52.810Z,97198.56
2022-09-28T12:16:53.700Z,97191.27
2022-09-28T12:19:21.882Z,97185.23
2022-09-28T12:21:53.259Z,97180.85
2022-09-28T12:24:29.470Z,97183.73
2022-09-28T12:27:35.310Z,97174.95
2022-09-28T12:30:22.154Z,97178.86
2022-09-28T12:33:08.923Z,97185.16
2022-09-28T12:36:00.567Z,97184.32
2022-09-28T12:38:54.130Z,97185.21
2022-09-28T12:41:50.704Z,97177.35
2022-09-28T12:44:47.425Z,97171.60
2022-09-28T12:47:45.985Z,97177.56
2022-09-28T12:50:47.503Z,97183.73
2022-09-28T12:53:32.475Z,97182.64
2022-09-28T12:56:16.833Z,97188.02
2022-09-28T12:59:16.313Z,97185.16
2022-09-28T13:02:23.328Z,97183.45
2022-09-28T13:05:34.877Z,97185.95
2022-09-28T13:08:13.768Z,97185.33
2022-09-28T13:10:52.888Z,97183.92
2022-09-28T13:13:48.020Z,97181.73
2022-09-28T13:16:39.063Z,97185.23
2022-09-28T13:19:17.216Z,97181.95
2022-09-28T13:22:22.077Z,97177.48
2022-09-28T13:24:55.241Z,97172.89
2022-09-28T13:27:33.536Z,97174.60
2022-09-28T13:30:06.974Z,97179.46
2022-09-28T13:32:39.150Z,97182.25
2022-09-28T13:35:07.441Z,97181.70
2022-09-28T13:37:35.538Z,97181.10
2022-09-28T13:40:06.476Z,97182.19
2022-09-28T13:42:44.606Z,97179.80
2022-09-28T13:45:21.598Z,97177.15
2022-09-28T13:48:20.455Z,97175.05
2022-09-28T13:51:23.594Z,97174.41
2022-09-28T13:54:08.996Z,97177.52
2022-09-28T13:56:40.938Z,97178.87
2022-09-28T13:59:19.634Z,97176.37
2022-09-28T14:02:07.433Z,97172.83
2022-09-28T14:04:58.314Z,97160.46
2022-09-28T14:07:58.570Z,97153.64
2022-09-28T14:10:57.119Z,97158.70
2022-09-28T14:13:44.362Z,97158.70
2022-09-28T14:16:24.279Z,97159.39
2022-09-28T14:19:27.043Z,97157.17
2022-09-28T14:22:22.042Z,97158.15
2022-09-28T14:24:59.218Z,97157.44
2022-09-28T14:27:33.540Z,97150.23
2022-09-28T14:30:24.831Z,97149.34
2022-09-28T14:32:58.984Z,97151.81
2022-09-28T14:35:40.545Z,97148.20
2022-09-28T14:39:03.440Z,97146.14
2022-09-28T14:41:40.294Z,97148.02
2022-09-28T14:44:10.998Z,97149.98
2022-09-28T14:46:46.884Z,97151.63
2022-09-28T14:49:18.269Z,97153.64
2022-09-28T14:52:02.390Z,97159.52
2022-09-28T14:54:56.937Z,97155.70
2022-09-28T14:57:31.265Z,97157.19
2022-09-28T15:00:00.932Z,97158.05
2022-09-28T15:02:38.744Z,97155.71
2022-09-28T15:05:06.749Z,97150.52
2022-09-28T15:07:52.018Z,97152.64
2022-09-28T15:10:32.501Z,97157.77
2022-09-28T15:13:15.177Z,97158.45
2022-09-28T15:15:50.709Z,97160.84
2022-09-28T15:18:21.622Z,97158.25
2022-09-28T15:20:50.458Z,97161.45
2022-09-28T15:23:39.815Z,97163.55
2022-09-28T15:26:24.485Z,97165.70
2022-09-28T15:28:54.787Z,97171.36
2022-09-28T15:31:26.427Z,97180.46
2022-09-28T15:36:59.249Z,97196.11
2022-09-28T15:39:58.317Z,97199.48
2022-09-28T15:42:26.425Z,97206.85
2022-09-28T15:45:26.662Z,97211.33
2022-09-28T15:48:20.920Z,97210.77
2022-09-28T15:51:16.666Z,97209.08
2022-09-28T15:54:04.379Z,97215.63
2022-09-28T15:56:52.062Z,97219.73
2022-09-28T15:59:40.910Z,97221.70
2022-09-28T16:02:17.058Z,97220.10
2022-09-28T16:04:50.637Z,97225.59
2022-09-28T16:07:23.319Z,97226.86
2022-09-28T16:10:02.524Z,97233.24
2022-09-28T16:12:38.973Z,97229.73
2022-09-28T16:15:18.380Z,97230.64
2022-09-28T16:17:52.594Z,97231.36
2022-09-28T16:20:41.726Z,97232.60
2022-09-28T16:23:22.210Z,97236.48
2022-09-28T16:26:00.689Z,97238.64
2022-09-28T16:28:37.904Z,97242.06
2022-09-28T16:31:27.333Z,97247.76
2022-09-28T16:34:01.716Z,97246.67
2022-09-28T16:36:44.233Z,97250.95
2022-09-28T16:39:14.128Z,97255.77
2022-09-28T16:41:48.522Z,97262.89
2022-09-28T16:44:23.842Z,97266.16
2022-09-28T16:46:55.571Z,97269.75
2022-09-28T16:49:28.432Z,97274.27
2022-09-28T16:51:57.059Z,97273.07
2022-09-28T16:54:43.983Z,97274.04
2022-09-28T16:57:14.912Z,97280.17
2022-09-28T16:59:44.050Z,97286.73
2022-09-28T17:02:45.303Z,97291.85
2022-09-28T17:05:10.565Z,97294.98
2022-09-28T17:07:39.693Z,97299.06
2022-09-28T17:10:23.728Z,97298.52
2022-09-28T17:12:52.228Z,97304.84
2022-09-28T17:15:20.457Z,97310.51
2022-09-28T17:17:49.216Z,97319.79
2022-09-28T17:20:29.866Z,97327.07
2022-09-28T17:22:57.688Z,97324.98
2022-09-28T17:25:27.311Z,97335.40
2022-09-28T17:27:57.644Z,97330.67
2022-09-28T17:30:26.303Z,97333.83
2022-09-28T17:32:54.137Z,97331.02
2022-09-28T17:35:24.599Z,97340.74
2022-09-28T17:37:54.787Z,97344.55
2022-09-28T17:40:28.522Z,97350.45
2022-09-28T17:42:58.014Z,97355.14
2022-09-28T17:45:31.398Z,97362.68
2022-09-28T17:48:00.953Z,97368.22
2022-09-28T17:50:33.785Z,97367.48
2022-09-28T17:53:06.810Z,97369.66
2022-09-28T17:55:37.003Z,97371.06
2022-09-28T17:58:17.084Z,97374.33
2022-09-28T18:00:50.149Z,97375.16
2022-09-28T18:03:21.377Z,97372.73
2022-09-28T18:05:58.205Z,97369.98
2022-09-28T18:08:26.527Z,97375.50
2022-09-28T18:10:55.022Z,97371.52
2022-09-28T18:13:26.362Z,97372.89
2022-09-28T18:15:56.161Z,97378.95
2022-09-28T18:18:25.180Z,97380.89
2022-09-28T18:20:53.315Z,97380.80
2022-09-28T18:23:24.822Z,97381.16
2022-09-28T18:25:53.098Z,97380.80
2022-09-28T18:28:23.110Z,97383.14
2022-09-28T18:30:51.491Z,97385.23
2022-09-28T18:33:19.480Z,97387.74
2022-09-28T18:35:52.993Z,97389.17
2022-09-28T18:38:21.700Z,97389.89
2022-09-28T18:40:50.141Z,97390.88
2022-09-28T18:43:18.061Z,97392.11
2022-09-28T18:45:46.088Z,97395.92
2022-09-28T18:48:16.373Z,97397.58
2022-09-28T18:50:45.188Z,97398.77
2022-09-28T18:53:14.017Z,97400.90
2022-09-28T18:55:43.288Z,97403.41
2022-09-28T18:58:12.115Z,97405.13
2022-09-28T19:00:41.186Z,97409.63
2022-09-28T19:03:11.935Z,97410.77
2022-09-28T19:05:43.702Z,97417.55
2022-09-28T19:08:13.357Z,97422.32
2022-09-28T19:10:41.397Z,97427.30
2022-09-28T19:13:09.500Z,97432.92
2022-09-28T19:15:39.198Z,97434.00
2022-09-28T19:18:07.352Z,97436.63
2022-09-28T19:20:36.052Z,97438.27
2022-09-28T19:23:04.514Z,97438.39
2022-09-28T19:25:35.396Z,97443.45
2022-09-28T19:28:03.448Z,97443.59
2022-09-28T19:30:32.139Z,97440.67
2022-09-28T19:33:01.711Z,97442.51
2022-09-28T19:35:31.127Z,97444.27
2022-09-28T19:37:59.269Z,97443.02
2022-09-28T19:40:27.780Z,97444.01
2022-09-28T19:42:57.692Z,97447.81
2022-09-28T19:45:25.500Z,97446.41
2022-09-28T19:47:57.324Z,97444.85
2022-09-28T19:50:27.111Z,97450.40
2022-09-28T19:52:57.274Z,97457.48
2022-09-28T19:55:25.322Z,97463.89
2022-09-28T19:57:56.556Z,97468.53
2022-09-28T20:00:25.356Z,97471.67
2022-09-28T20:02:53.603Z,97476.14
2022-09-28T20:05:21.348Z,97478.46
2022-09-28T20:07:49.226Z,97477.19
2022-09-28T20:10:17.109Z,97478.07
2022-09-28T20:12:45.309Z,97480.64
2022-09-28T20:15:13.411Z,97481.95
2022-09-28T20:17:41.141Z,97484.70
2022-09-28T20:20:09.638Z,97484.63
2022-09-28T20:22:38.317Z,97490.59
2022-09-28T20:25:06.491Z,97494.69
2022-09-28T20:27:34.696Z,97498.26
2022-09-28T20:30:03.334Z,97501.10
2022-09-28T20:32:32.232Z,97505.44
2022-09-28T20:35:02.343Z,97510.83
2022-09-28T20:37:31.062Z,97515.77
2022-09-28T20:40:01.049Z,97518.46
2022-09-28T20:42:30.072Z,97516.56
2022-09-28T20:44:58.336Z,97520.33
2022-09-28T20:47:26.891Z,97523.33
2022-09-28T20:49:54.785Z,97528.13
2022-09-28T20:52:23.278Z,97533.44
2022-09-28T20:54:51.061Z,97534.58
2022-09-28T20:57:19.233Z,97539.70
2022-09-28T20:59:52.283Z,97545.45
2022-09-28T21:02:22.671Z,97553.55
2022-09-28T21:04:50.432Z,97560.56
2022-09-28T21:07:18.173Z,97559.55
2022-09-28T21:09:45.977Z,97562.39
2022-09-28T21:12:15.799Z,97559.42
2022-09-28T21:14:44.328Z,97560.36
2022-09-28T21:17:12.421Z,97562.54
2022-09-28T21:19:40.358Z,97568.29
2022-09-28T21:22:08.101Z,97569.41
2022-09-28T21:24:35.928Z,97571.86
2022-09-28T21:27:04.363Z,97575.73
2022-09-28T21:29:32.066Z,97581.09
2022-09-28T21:32:00.306Z,97583.77
2022-09-28T21:34:28.538Z,97583.92
2022-09-28T21:36:56.278Z,97583.98
2022-09-28T21:39:25.396Z,97585.95
2022-09-28T21:41:53.670Z,97587.67
2022-09-28T21:44:21.829Z,97590.14
2022-09-28T21:46:50.323Z,97592.47
2022-09-28T21:49:19.601Z,97595.83
2022-09-28T21:52:14.545Z,97597.94
2022-09-28T21:54:42.721Z,97601.95
2022-09-28T21:57:12.208Z,97603.73
2022-09-28T21:59:39.931Z,97605.35
2022-09-28T22:02:08.575Z,97609.48
2022-09-28T22:04:38.984Z,97610.83
2022-09-28T22:07:06.746Z,97613.13
2022-09-28T22:09:34.589Z,97615.10
2022-09-28T22:12:02.404Z,97620.77
2022-09-28T22:14:30.135Z,97618.48
2022-09-28T22:16:57.877Z,97623.09
2022-09-28T22:19:26.932Z,97624.17
2022-09-28T22:21:54.777Z,97623.55
2022-09-28T22:24:22.551Z,97624.89
2022-09-28T22:26:50.345Z,97626.64
2022-09-28T22:29:18.506Z,97627.04
2022-09-28T22:31:46.288Z,97627.85
2022-09-28T22:34:14.178Z,97629.75
2022-09-28T22:36:42.140Z,97632.18
2022-09-28T22:39:09.962Z,97632.57
2022-09-28T22:41:39.003Z,97635.48
2022-09-28T22:44:06.793Z,97639.29
2022-09-28T22:46:35.624Z,97640.77
2022-09-28T22:49:05.263Z,97642.20
2022-09-28T22:51:34.268Z,97645.91
2022-09-28T22:54:02.001Z,97647.02
2022-09-28T22:56:30.809Z,97650.02
2022-09-28T22:58:59.289Z,97652.02
2022-09-28T23:01:28.422Z,97649.00
2022-09-28T23:03:58.822Z,97651.85
2022-09-28T23:06:28.826Z,97651.93
2022-09-28T23:08:57.228Z,97651.19
2022-09-28T23:11:25.308Z,97653.15
2022-09-28T23:13:54.346Z,97644.91
2022-09-28T23:16:25.455Z,97647.32
2022-09-28T23:18:54.475Z,97642.33
2022-09-28T23:21:23.772Z,97640.51
2022-09-28T23:23:53.395Z,97639.90
2022-09-28T23:26:23.724Z,97643.48
2022-09-28T23:28:53.154Z,97641.36
2022-09-28T23:31:24.286Z,97641.00
2022-09-28T23:33:53.470Z,97641.48
2022-09-28T23:36:21.855Z,97635.49
2022-09-28T23:38:49.727Z,97632.74
2022-09-28T23:41:17.512Z,97631.07
2022-09-28T23:43:45.307Z,97633.10
2022-09-28T23:46:15.303Z,97637.24
2022-09-28T23:48:45.155Z,97644.23
2022-09-28T23:51:14.549Z,97650.45
2022-09-28T23:53:43.505Z,97650.70
2022-09-28T23:56:11.360Z,97653.45
2022-09-28T23:58:40.821Z,97657.27
